createdAt,value
2018-05-03T00:00:47.397Z,99431.06
2018-05-03T00:03:15.122Z,99436.89
2018-05-03T00:05:42.842Z,99438.25
2018-05-03T00:08:10.527Z,99445.42
2018-05-03T00:10:38.228Z,99444.92
2018-05-03T00:13:05.933Z,99442.22
2018-05-03T00:15:33.561Z,99448.20
2018-05-03T00:18:01.178Z,99434.28
2018-05-03T00:20:28.802Z,99439.58
2018-05-03T00:22:56.474Z,99435.52
2018-05-03T00:25:24.221Z,99431.52
2018-05-03T00:27:51.878Z,99434.16
2018-05-03T00:30:19.590Z,99432.02
2018-05-03T00:32:47.257Z,99426.44
2018-05-03T00:35:14.921Z,99431.43
2018-05-03T00:37:42.641Z,99432.67
2018-05-03T00:40:10.310Z,99434.78
2018-05-03T00:42:37.954Z,99443.30
2018-05-03T00:45:05.633Z,99443.55
2018-05-03T00:47:33.283Z,99439.81
2018-05-03T00:50:01.050Z,99441.39
2018-05-03T00:52:28.675Z,99444.14
2018-05-03T00:54:56.390Z,99436.33
2018-05-03T00:57:24.141Z,99441.06
2018-05-03T00:59:51.835Z,99441.06
2018-05-03T01:02:19.542Z,99447.13
2018-05-03T01:04:47.161Z,99439.27
2018-05-03T01:07:14.802Z,99435.16
2018-05-03T01:09:42.441Z,99437.91
2018-05-03T01:12:10.106Z,99434.52
2018-05-03T01:14:37.794Z,99433.33
2018-05-03T01:17:05.434Z,99433.09
2018-05-03T01:19:33.059Z,99434.49
2018-05-03T01:22:00.687Z,99432.02
2018-05-03T01:24:28.436Z,99433.48
2018-05-03T01:26:56.090Z,99443.10
2018-05-03T01:29:23.742Z,99441.23
2018-05-03T01:31:51.469Z,99440.42
2018-05-03T01:34:19.630Z,99437.59
2018-05-03T01:36:47.259Z,99435.28
2018-05-03T01:39:14.894Z,99430.80
2018-05-03T01:41:42.577Z,99430.52
2018-05-03T01:44:10.261Z,99421.11
2018-05-03T01:46:38.001Z,99425.67
2018-05-03T01:49:05.661Z,99420.58
2018-05-03T01:51:33.360Z,99417.19
2018-05-03T01:54:01.077Z,99419.64
2018-05-03T01:56:28.757Z,99421.56
2018-05-03T01:58:56.489Z,99414.33
2018-05-03T02:01:24.196Z,99405.77
2018-05-03T02:03:51.902Z,99404.05
2018-05-03T02:06:19.602Z,99405.81
2018-05-03T02:08:47.274Z,99402.44
2018-05-03T02:11:14.965Z,99402.23
2018-05-03T02:13:42.709Z,99403.09
2018-05-03T02:16:10.416Z,99399.33
2018-05-03T02:18:38.127Z,99392.63
2018-05-03T02:21:05.847Z,99396.02
2018-05-03T02:23:33.562Z,99396.79
2018-05-03T02:26:01.257Z,99395.62
2018-05-03T02:28:28.904Z,99390.94
2018-05-03T02:30:56.625Z,99391.37
2018-05-03T02:33:24.346Z,99390.70
2018-05-03T02:35:52.166Z,99391.91
2018-05-03T02:38:19.866Z,99396.41
2018-05-03T02:40:47.542Z,99401.41
2018-05-03T02:43:15.218Z,99396.30
2018-05-03T02:45:42.927Z,99397.81
2018-05-03T02:48:10.650Z,99390.58
2018-05-03T02:50:38.417Z,99396.22
2018-05-03T02:53:06.051Z,99392.32
2018-05-03T02:55:33.705Z,99397.91
2018-05-03T02:58:18.064Z,99393.16
2018-05-03T03:01:03.263Z,99394.05
2018-05-03T03:03:48.518Z,99396.78
2018-05-03T03:06:33.630Z,99393.35
2018-05-03T03:09:18.604Z,99396.69
2018-05-03T03:12:03.669Z,99401.18
2018-05-03T03:18:06.454Z,99408.45
2018-05-03T03:21:01.307Z,99404.08
2018-05-03T03:23:46.412Z,99407.25
2018-05-03T03:26:27.646Z,99399.00
2018-05-03T03:29:12.828Z,99400.00
2018-05-03T03:31:57.746Z,99399.23
2018-05-03T03:34:27.220Z,99408.80
2018-05-03T03:37:03.455Z,99412.66
2018-05-03T03:39:42.966Z,99411.52
2018-05-03T03:42:22.288Z,99412.34
2018-05-03T03:44:49.974Z,99409.00
2018-05-03T03:47:17.656Z,99402.62
2018-05-03T03:49:45.382Z,99408.80
2018-05-03T03:52:13.001Z,99409.80
2018-05-03T03:54:40.701Z,99406.87
2018-05-03T03:57:08.414Z,99400.23
2018-05-03T03:59:36.113Z,99407.75
2018-05-03T04:02:03.861Z,99409.78
2018-05-03T04:04:31.543Z,99414.42
2018-05-03T04:06:59.222Z,99409.88
2018-05-03T04:09:26.866Z,99407.82
2018-05-03T04:11:54.517Z,99402.56
2018-05-03T04:14:22.143Z,99410.77
2018-05-03T04:16:49.851Z,99414.23
2018-05-03T04:19:29.058Z,99417.92
2018-05-03T04:22:08.349Z,99407.63
2018-05-03T04:24:47.793Z,99407.16
2018-05-03T04:27:15.405Z,99403.27
2018-05-03T04:29:43.114Z,99406.41
2018-05-03T04:32:10.803Z,99417.82
2018-05-03T04:34:38.607Z,99420.30
2018-05-03T04:37:06.229Z,99416.55
2018-05-03T04:39:33.862Z,99419.34
2018-05-03T04:42:01.514Z,99406.60
2018-05-03T04:44:29.150Z,99400.71
2018-05-03T04:46:56.913Z,99409.52
2018-05-03T04:49:24.590Z,99405.06
2018-05-03T04:51:52.225Z,99397.95
2018-05-03T04:54:19.944Z,99398.79
2018-05-03T04:56:47.581Z,99394.64
2018-05-03T04:59:15.809Z,99398.00
2018-05-03T05:01:43.514Z,99398.00
2018-05-03T05:04:11.254Z,99399.58
2018-05-03T05:06:38.861Z,99393.93
2018-05-03T05:09:06.654Z,99392.72
2018-05-03T05:11:34.273Z,99404.19
2018-05-03T05:14:01.942Z,99398.01
2018-05-03T05:16:29.659Z,99412.09
2018-05-03T05:18:57.354Z,99412.42
2018-05-03T05:21:25.097Z,99408.01
2018-05-03T05:23:52.800Z,99401.73
2018-05-03T05:26:20.513Z,99403.92
2018-05-03T05:28:48.954Z,99404.92
2018-05-03T05:31:16.657Z,99406.52
2018-05-03T05:33:44.298Z,99405.66
2018-05-03T05:36:12.016Z,99412.00
2018-05-03T05:38:39.770Z,99402.96
2018-05-03T05:41:07.330Z,99405.72
2018-05-03T05:43:35.074Z,99409.22
2018-05-03T05:46:02.729Z,99408.53
2018-05-03T05:48:30.419Z,99405.28
2018-05-03T05:50:58.245Z,99401.30
2018-05-03T05:53:25.930Z,99404.22
2018-05-03T05:55:53.610Z,99405.50
2018-05-03T05:58:21.255Z,99408.53
2018-05-03T06:00:48.966Z,99404.86
2018-05-03T06:03:16.677Z,99395.98
2018-05-03T06:05:44.454Z,99404.11
2018-05-03T06:08:12.275Z,99401.05
2018-05-03T06:10:39.945Z,99404.50
2018-05-03T06:13:07.650Z,99401.34
2018-05-03T06:15:35.366Z,99394.48
2018-05-03T06:18:03.090Z,99402.70
2018-05-03T06:20:30.735Z,99395.92
2018-05-03T06:22:58.509Z,99398.36
2018-05-03T06:25:26.126Z,99394.28
2018-05-03T06:27:53.709Z,99396.63
2018-05-03T06:30:21.359Z,99397.09
2018-05-03T06:32:48.991Z,99399.78
2018-05-03T06:35:16.592Z,99388.13
2018-05-03T06:37:44.257Z,99394.26
2018-05-03T06:40:11.927Z,99390.14
2018-05-03T06:42:39.562Z,99398.06
2018-05-03T06:45:07.258Z,99400.55
2018-05-03T06:47:34.967Z,99405.59
2018-05-03T06:50:02.674Z,99404.06
2018-05-03T06:52:30.406Z,99406.01
2018-05-03T06:54:58.119Z,99405.48
2018-05-03T06:57:25.904Z,99402.88
2018-05-03T06:59:53.629Z,99398.39
2018-05-03T07:02:21.305Z,99392.36
2018-05-03T07:04:48.983Z,99387.41
2018-05-03T07:07:16.687Z,99387.67
2018-05-03T07:09:45.333Z,99393.05
2018-05-03T07:12:13.054Z,99401.81
2018-05-03T07:14:40.766Z,99397.01
2018-05-03T07:17:08.498Z,99396.06
2018-05-03T07:19:36.182Z,99402.62
2018-05-03T07:22:03.994Z,99400.42
2018-05-03T07:24:31.681Z,99391.31
2018-05-03T07:26:59.591Z,99394.25
2018-05-03T07:29:27.350Z,99391.57
2018-05-03T07:31:55.074Z,99396.12
2018-05-03T07:34:22.795Z,99405.25
2018-05-03T07:36:50.435Z,99402.02
2018-05-03T07:39:18.073Z,99403.49
2018-05-03T07:41:45.873Z,99410.91
2018-05-03T07:44:13.614Z,99395.04
2018-05-03T07:46:41.342Z,99405.14
2018-05-03T07:49:08.965Z,99399.29
2018-05-03T07:51:36.678Z,99404.47
2018-05-03T07:54:04.370Z,99402.48
2018-05-03T07:56:32.068Z,99396.67
2018-05-03T07:58:59.691Z,99398.80
2018-05-03T08:01:27.306Z,99397.61
2018-05-03T08:03:54.978Z,99396.69
2018-05-03T08:06:22.763Z,99395.61
2018-05-03T08:08:50.233Z,99391.57
2018-05-03T08:13:50.301Z,99394.08
2018-05-03T08:16:17.929Z,99392.26
2018-05-03T08:18:45.553Z,99386.87
2018-05-03T08:21:13.251Z,99396.19
2018-05-03T08:23:40.873Z,99389.47
2018-05-03T08:26:08.470Z,99391.56
2018-05-03T08:28:36.131Z,99388.50
2018-05-03T08:31:03.725Z,99380.23
2018-05-03T08:33:31.359Z,99384.81
2018-05-03T08:35:58.945Z,99386.21
2018-05-03T08:38:26.622Z,99382.28
2018-05-03T08:40:54.233Z,99375.25
2018-05-03T08:43:21.861Z,99373.80
2018-05-03T08:45:49.465Z,99369.52
2018-05-03T08:48:17.063Z,99368.11
2018-05-03T08:50:44.781Z,99367.18
2018-05-03T08:53:12.444Z,99374.05
2018-05-03T08:55:40.107Z,99361.03
2018-05-03T08:58:07.753Z,99360.48
2018-05-03T09:00:35.390Z,99353.88
2018-05-03T09:03:03.062Z,99353.19
2018-05-03T09:05:30.722Z,99362.44
2018-05-03T09:07:58.403Z,99360.45
2018-05-03T09:10:26.126Z,99358.42
2018-05-03T09:12:53.817Z,99351.47
2018-05-03T09:15:21.527Z,99360.00
2018-05-03T09:17:49.175Z,99346.08
2018-05-03T09:20:16.853Z,99346.37
2018-05-03T09:22:44.549Z,99343.75
2018-05-03T09:25:12.397Z,99340.17
2018-05-03T09:27:40.047Z,99347.27
2018-05-03T09:30:07.740Z,99345.30
2018-05-03T09:32:35.418Z,99334.53
2018-05-03T09:35:03.092Z,99333.29
2018-05-03T09:37:30.794Z,99331.78
2018-05-03T09:39:58.498Z,99326.65
2018-05-03T09:42:26.190Z,99322.17
2018-05-03T09:44:53.870Z,99323.39
2018-05-03T09:47:21.569Z,99324.81
2018-05-03T09:49:49.278Z,99323.72
2018-05-03T09:52:16.971Z,99314.50
2018-05-03T09:54:45.199Z,99309.58
2018-05-03T09:57:12.884Z,99304.42
2018-05-03T09:59:40.580Z,99308.20
2018-05-03T10:02:08.234Z,99310.21
2018-05-03T10:04:35.913Z,99310.96
2018-05-03T10:07:03.561Z,99313.74
2018-05-03T10:09:31.157Z,99312.73
2018-05-03T10:11:58.797Z,99314.84
2018-05-03T10:14:26.489Z,99301.19
2018-05-03T10:16:54.217Z,99302.69
2018-05-03T10:19:21.885Z,99305.02
2018-05-03T10:21:49.586Z,99304.03
2018-05-03T10:24:17.293Z,99308.06
2018-05-03T10:26:44.966Z,99297.72
2018-05-03T10:29:12.637Z,99296.00
2018-05-03T10:31:40.317Z,99300.19
2018-05-03T10:34:07.974Z,99295.52
2018-05-03T10:36:35.895Z,99291.61
2018-05-03T10:39:03.662Z,99286.53
2018-05-03T10:41:31.346Z,99292.37
2018-05-03T10:43:59.002Z,99290.95
2018-05-03T10:46:26.706Z,99289.12
2018-05-03T10:48:54.358Z,99286.13
2018-05-03T10:51:22.018Z,99288.84
2018-05-03T10:53:50.433Z,99285.53
2018-05-03T10:56:18.106Z,99289.50
2018-05-03T10:58:45.777Z,99286.23
2018-05-03T11:01:13.451Z,99291.38
2018-05-03T11:03:41.109Z,99281.48
2018-05-03T11:06:08.710Z,99281.16
2018-05-03T11:08:36.297Z,99281.55
2018-05-03T11:11:03.975Z,99274.17
2018-05-03T11:13:31.588Z,99278.03
2018-05-03T11:15:59.218Z,99271.41
2018-05-03T11:18:26.919Z,99267.38
2018-05-03T11:20:54.549Z,99270.80
2018-05-03T11:23:22.162Z,99268.23
2018-05-03T11:25:49.799Z,99271.75
2018-05-03T11:28:17.413Z,99264.98
2018-05-03T11:30:45.004Z,99265.63
2018-05-03T11:33:12.653Z,99274.88
2018-05-03T11:35:40.293Z,99276.95
2018-05-03T11:38:07.885Z,99275.69
2018-05-03T11:40:35.519Z,99277.63
2018-05-03T11:43:03.126Z,99279.39
2018-05-03T11:45:30.725Z,99273.95
2018-05-03T11:47:58.394Z,99271.81
2018-05-03T11:50:26.152Z,99274.66
2018-05-03T11:52:53.871Z,99276.03
2018-05-03T11:55:21.613Z,99268.27
2018-05-03T11:57:49.392Z,99274.41
2018-05-03T12:00:17.130Z,99268.77
2018-05-03T12:02:44.818Z,99267.91
2018-05-03T12:05:12.496Z,99265.41
2018-05-03T12:07:40.162Z,99266.84
2018-05-03T12:10:07.863Z,99258.35
2018-05-03T12:12:35.522Z,99266.06
2018-05-03T12:15:03.138Z,99267.06
2018-05-03T12:17:30.731Z,99263.94
2018-05-03T12:19:58.364Z,99258.00
2018-05-03T12:22:26.006Z,99262.05
2018-05-03T12:24:53.598Z,99252.50
2018-05-03T12:27:21.239Z,99245.42
2018-05-03T12:29:48.874Z,99247.30
2018-05-03T12:32:16.501Z,99243.49
2018-05-03T12:34:44.235Z,99241.40
2018-05-03T12:37:11.927Z,99239.55
2018-05-03T12:39:39.562Z,99240.97
2018-05-03T12:42:07.239Z,99238.53
2018-05-03T12:44:34.874Z,99232.50
2018-05-03T12:47:02.561Z,99232.64
2018-05-03T12:49:30.222Z,99236.94
2018-05-03T12:51:57.833Z,99235.59
2018-05-03T12:54:25.447Z,99243.25
2018-05-03T12:56:53.073Z,99233.59
2018-05-03T12:59:20.680Z,99224.21
2018-05-03T13:01:48.302Z,99224.14
2018-05-03T13:04:15.929Z,99218.98
2018-05-03T13:06:43.557Z,99209.28
2018-05-03T13:09:11.215Z,99212.77
2018-05-03T13:11:38.817Z,99204.96
2018-05-03T13:14:06.536Z,99199.81
2018-05-03T13:16:34.129Z,99198.03
2018-05-03T13:19:01.767Z,99194.84
2018-05-03T13:21:29.370Z,99195.27
2018-05-03T13:23:56.959Z,99194.10
2018-05-03T13:26:24.577Z,99185.83
2018-05-03T13:28:52.257Z,99182.58
2018-05-03T13:31:19.891Z,99182.63
2018-05-03T13:33:47.481Z,99182.56
2018-05-03T13:36:15.122Z,99181.27
2018-05-03T13:38:42.714Z,99186.51
2018-05-03T13:41:10.452Z,99187.68
2018-05-03T13:43:38.077Z,99187.43
2018-05-03T13:46:05.671Z,99196.84
2018-05-03T13:48:33.261Z,99196.50
2018-05-03T13:51:00.954Z,99200.53
2018-05-03T13:53:28.635Z,99198.57
2018-05-03T13:55:56.311Z,99198.72
2018-05-03T13:58:23.942Z,99202.47
2018-05-03T14:00:51.673Z,99205.72
2018-05-03T14:03:19.377Z,99204.40
2018-05-03T14:05:47.011Z,99201.48
2018-05-03T14:08:14.688Z,99199.28
2018-05-03T14:10:42.297Z,99204.24
2018-05-03T14:13:09.949Z,99207.50
2018-05-03T14:15:37.569Z,99204.86
2018-05-03T14:18:05.158Z,99203.41
2018-05-03T14:20:32.843Z,99192.67
2018-05-03T14:23:00.465Z,99195.69
2018-05-03T14:25:28.085Z,99196.00
2018-05-03T14:27:55.687Z,99192.34
2018-05-03T14:30:23.375Z,99184.58
2018-05-03T14:32:50.985Z,99177.75
2018-05-03T14:35:19.450Z,99166.41
2018-05-03T14:37:47.123Z,99158.59
2018-05-03T14:40:14.830Z,99159.84
2018-05-03T14:42:43.419Z,99164.11
2018-05-03T14:45:11.070Z,99162.28
2018-05-03T14:47:38.734Z,99153.03
2018-05-03T14:50:06.402Z,99144.95
2018-05-03T14:52:34.036Z,99142.58
2018-05-03T14:55:01.647Z,99140.86
2018-05-03T14:57:29.361Z,99147.05
2018-05-03T14:59:57.009Z,99149.72
2018-05-03T15:02:24.609Z,99151.94
2018-05-03T15:04:52.202Z,99143.62
2018-05-03T15:07:19.874Z,99143.88
2018-05-03T15:09:47.461Z,99138.78
2018-05-03T15:12:15.057Z,99142.98
2018-05-03T15:14:42.683Z,99137.34
2018-05-03T15:17:10.378Z,99132.08
2018-05-03T15:19:38.099Z,99140.66
2018-05-03T15:22:05.818Z,99138.49
2018-05-03T15:24:33.442Z,99139.71
2018-05-03T15:27:01.083Z,99142.89
2018-05-03T15:29:28.765Z,99144.67
2018-05-03T15:31:58.697Z,99140.77
2018-05-03T15:34:26.373Z,99135.16
2018-05-03T15:36:54.011Z,99137.01
2018-05-03T15:39:21.707Z,99140.40
2018-05-03T15:41:49.245Z,99142.89
2018-05-03T15:44:16.870Z,99142.14
2018-05-03T15:46:44.515Z,99142.11
2018-05-03T15:49:12.209Z,99141.72
2018-05-03T15:51:40.031Z,99140.52
2018-05-03T15:54:07.705Z,99142.16
2018-05-03T15:56:35.359Z,99146.02
2018-05-03T15:59:03.107Z,99147.55
2018-05-03T16:01:30.860Z,99146.91
2018-05-03T16:03:58.430Z,99148.55
2018-05-03T16:06:26.137Z,99152.90
2018-05-03T16:08:53.788Z,99143.81
2018-05-03T16:11:21.406Z,99160.06
2018-05-03T16:13:49.071Z,99164.80
2018-05-03T16:16:16.835Z,99164.66
2018-05-03T16:18:44.513Z,99167.56
2018-05-03T16:21:12.214Z,99167.20
2018-05-03T16:23:39.982Z,99162.03
2018-05-03T16:26:07.610Z,99166.08
2018-05-03T16:28:35.249Z,99166.34
2018-05-03T16:31:02.888Z,99172.15
2018-05-03T16:33:30.533Z,99178.73
2018-05-03T16:35:58.261Z,99179.59
2018-05-03T16:38:25.909Z,99177.92
2018-05-03T16:40:53.635Z,99173.47
2018-05-03T16:43:21.367Z,99174.95
2018-05-03T16:45:48.981Z,99181.67
2018-05-03T16:48:16.621Z,99179.20
2018-05-03T16:50:44.310Z,99188.20
2018-05-03T16:53:12.024Z,99193.51
2018-05-03T16:55:39.674Z,99192.09
2018-05-03T16:58:07.398Z,99190.66
2018-05-03T17:00:35.087Z,99193.64
2018-05-03T17:03:02.790Z,99196.62
2018-05-03T17:05:30.502Z,99206.54
2018-05-03T17:07:58.215Z,99204.62
2018-05-03T17:10:25.878Z,99209.75
2018-05-03T17:12:53.542Z,99215.09
2018-05-03T17:15:21.213Z,99215.34
2018-05-03T17:17:48.942Z,99222.70
2018-05-03T17:20:16.565Z,99223.28
2018-05-03T17:22:44.221Z,99232.01
2018-05-03T17:25:11.966Z,99232.90
2018-05-03T17:27:39.598Z,99239.13
2018-05-03T17:30:07.646Z,99240.24
2018-05-03T17:32:35.631Z,99244.36
2018-05-03T17:35:03.464Z,99238.31
2018-05-03T17:37:31.365Z,99248.51
2018-05-03T17:39:59.297Z,99247.70
2018-05-03T17:42:27.145Z,99255.64
2018-05-03T17:44:54.859Z,99261.81
2018-05-03T17:47:22.606Z,99261.67
2018-05-03T17:49:50.378Z,99266.74
2018-05-03T17:52:18.033Z,99267.73
2018-05-03T17:54:45.706Z,99269.02
2018-05-03T17:57:13.516Z,99275.50
2018-05-03T17:59:41.212Z,99271.79
2018-05-03T18:02:08.904Z,99280.03
2018-05-03T18:04:36.646Z,99279.30
2018-05-03T18:07:05.124Z,99282.20
2018-05-03T18:09:32.862Z,99287.09
2018-05-03T18:12:00.576Z,99290.50
2018-05-03T18:14:28.247Z,99286.25
2018-05-03T18:16:56.019Z,99288.58
2018-05-03T18:19:23.729Z,99292.91
2018-05-03T18:21:51.422Z,99294.84
2018-05-03T18:24:19.077Z,99296.49
2018-05-03T18:26:46.685Z,99299.84
2018-05-03T18:29:14.302Z,99299.91
2018-05-03T18:31:41.977Z,99304.83
2018-05-03T18:34:09.583Z,99315.24
2018-05-03T18:36:37.181Z,99305.59
2018-05-03T18:39:04.853Z,99318.45
2018-05-03T18:41:32.509Z,99317.11
2018-05-03T18:44:00.188Z,99326.30
2018-05-03T18:46:27.752Z,99327.03
2018-05-03T18:48:55.462Z,99335.25
2018-05-03T18:51:23.150Z,99330.20
2018-05-03T18:53:50.909Z,99341.83
2018-05-03T18:56:18.631Z,99342.95
2018-05-03T18:58:46.278Z,99345.08
2018-05-03T19:01:13.947Z,99350.41
2018-05-03T19:03:41.611Z,99350.46
2018-05-03T19:06:09.322Z,99351.63
2018-05-03T19:08:36.952Z,99354.82
2018-05-03T19:11:04.625Z,99356.03
2018-05-03T19:13:32.326Z,99358.53
2018-05-03T19:16:00.041Z,99357.83
2018-05-03T19:18:27.753Z,99359.36
2018-05-03T19:20:55.394Z,99358.80
2018-05-03T19:23:23.058Z,99363.33
2018-05-03T19:25:50.739Z,99357.92
2018-05-03T19:28:18.368Z,99363.59
2018-05-03T19:30:46.069Z,99359.63
2018-05-03T19:33:13.775Z,99362.55
2018-05-03T19:35:41.409Z,99357.78
2018-05-03T19:38:09.062Z,99363.31
2018-05-03T19:40:36.895Z,99364.20
2018-05-03T19:43:04.650Z,99359.32
2018-05-03T19:45:32.362Z,99361.15
2018-05-03T19:48:00.172Z,99362.66
2018-05-03T19:50:27.910Z,99360.39
2018-05-03T19:52:55.558Z,99360.95
2018-05-03T19:55:23.234Z,99361.95
2018-05-03T19:57:50.898Z,99362.44
2018-05-03T20:00:18.534Z,99359.83
2018-05-03T20:02:46.290Z,99360.45
2018-05-03T20:05:13.962Z,99361.02
2018-05-03T20:07:41.640Z,99355.05
2018-05-03T20:10:09.377Z,99352.97
2018-05-03T20:12:37.069Z,99348.59
2018-05-03T20:15:04.769Z,99352.26
2018-05-03T20:17:32.438Z,99361.33
2018-05-03T20:20:00.162Z,99363.13
2018-05-03T20:22:27.803Z,99366.65
2018-05-03T20:24:55.529Z,99368.38
2018-05-03T20:27:23.169Z,99378.89
2018-05-03T20:29:50.882Z,99383.84
2018-05-03T20:32:18.519Z,99380.34
2018-05-03T20:34:46.234Z,99374.02
2018-05-03T20:37:13.943Z,99372.80
2018-05-03T20:39:41.722Z,99375.90
2018-05-03T20:42:09.401Z,99370.13
2018-05-03T20:44:37.137Z,99371.60
2018-05-03T20:47:04.827Z,99365.28
2018-05-03T20:49:32.553Z,99362.33
2018-05-03T20:52:00.192Z,99358.14
2018-05-03T20:54:27.822Z,99355.55
2018-05-03T20:56:55.439Z,99356.02
2018-05-03T20:59:23.070Z,99355.16
2018-05-03T21:01:50.748Z,99365.09
2018-05-03T21:04:18.465Z,99360.50
2018-05-03T21:06:46.169Z,99362.41
2018-05-03T21:09:13.854Z,99352.54
2018-05-03T21:11:41.477Z,99354.61
2018-05-03T21:14:09.125Z,99355.47
2018-05-03T21:16:36.814Z,99347.59
2018-05-03T21:19:04.454Z,99351.89
2018-05-03T21:21:32.083Z,99352.09
2018-05-03T21:23:59.706Z,99347.66
2018-05-03T21:26:27.370Z,99347.30
2018-05-03T21:28:55.006Z,99347.86
2018-05-03T21:31:22.682Z,99347.86
2018-05-03T21:33:50.309Z,99353.41
2018-05-03T21:36:17.953Z,99355.67
2018-05-03T21:38:45.605Z,99352.50
2018-05-03T21:41:13.269Z,99354.84
2018-05-03T21:43:40.875Z,99349.83
2018-05-03T21:46:08.502Z,99355.64
2018-05-03T21:48:36.113Z,99350.27
2018-05-03T21:51:03.753Z,99346.28
2018-05-03T21:53:31.362Z,99344.81
2018-05-03T21:55:58.993Z,99351.66
2018-05-03T21:58:26.637Z,99356.96
2018-05-03T22:00:54.305Z,99364.28
2018-05-03T22:03:21.914Z,99367.71
2018-05-03T22:05:49.601Z,99355.65
2018-05-03T22:08:17.338Z,99356.36
2018-05-03T22:10:44.981Z,99352.81
2018-05-03T22:13:12.605Z,99346.64
2018-05-03T22:15:40.225Z,99348.16
2018-05-03T22:18:07.849Z,99349.19
2018-05-03T22:20:35.553Z,99340.44
2018-05-03T22:23:03.233Z,99348.64
2018-05-03T22:25:30.849Z,99349.53
2018-05-03T22:27:58.476Z,99347.93
2018-05-03T22:30:26.126Z,99346.20
2018-05-03T22:32:53.747Z,99341.86
2018-05-03T22:35:21.566Z,99352.04
2018-05-03T22:37:49.253Z,99355.44
2018-05-03T22:40:16.946Z,99359.79
2018-05-03T22:42:44.689Z,99347.93
2018-05-03T22:45:12.400Z,99341.02
2018-05-03T22:47:40.105Z,99345.08
2018-05-03T22:50:07.906Z,99337.44
2018-05-03T22:52:35.601Z,99337.29
2018-05-03T22:55:03.239Z,99340.33
2018-05-03T22:57:30.954Z,99347.38
2018-05-03T22:59:58.707Z,99347.73
2018-05-03T23:02:26.381Z,99353.84
2018-05-03T23:04:54.078Z,99349.09
2018-05-03T23:07:21.759Z,99340.66
2018-05-03T23:09:49.505Z,99335.45
2018-05-03T23:12:17.149Z,99338.19
2018-05-03T23:14:44.820Z,99340.03
2018-05-03T23:17:12.569Z,99345.07
2018-05-03T23:19:40.206Z,99340.70
2018-05-03T23:22:07.821Z,99341.39
2018-05-03T23:24:35.546Z,99345.03
2018-05-03T23:27:03.235Z,99351.27
2018-05-03T23:29:30.858Z,99351.13
2018-05-03T23:31:58.542Z,99352.08
2018-05-03T23:34:26.181Z,99347.43
2018-05-03T23:36:53.866Z,99351.66
2018-05-03T23:39:21.493Z,99351.23
2018-05-03T23:41:49.138Z,99350.16
2018-05-03T23:44:16.746Z,99348.56
2018-05-03T23:46:44.365Z,99347.18
2018-05-03T23:49:12.005Z,99350.76
2018-05-03T23:51:39.617Z,99348.73
2018-05-03T23:54:07.219Z,99348.36
2018-05-03T23:56:34.837Z,99349.89
2018-05-03T23:59:02.481Z,99350.30
